createdAt,value
2022-07-28T00:00:11.643Z,41
2022-07-28T00:00:27.547Z,41
2022-07-28T00:01:00.639Z,50
2022-07-28T00:01:30.600Z,49
2022-07-28T00:02:02.734Z,49
2022-07-28T00:02:34.745Z,48
2022-07-28T00:03:07.712Z,46
2022-07-28T00:03:38.674Z,46
2022-07-28T00:04:10.812Z,46
2022-07-28T00:04:28.252Z,46
2022-07-28T00:04:58.604Z,46
2022-07-28T00:05:31.020Z,46
2022-07-28T00:05:48.129Z,46
2022-07-28T00:06:19.453Z,46
2022-07-28T00:06:40.589Z,46
2022-07-28T00:07:07.558Z,46
2022-07-28T00:07:38.556Z,46
2022-07-28T00:08:10.524Z,46
2022-07-28T00:08:27.579Z,46
2022-07-28T00:08:58.698Z,47
2022-07-28T00:09:30.601Z,47
2022-07-28T00:10:04.145Z,48
2022-07-28T00:10:36.640Z,47
2022-07-28T00:11:07.564Z,47
2022-07-28T00:11:51.426Z,38
2022-07-28T00:12:10.566Z,41
2022-07-28T00:12:27.735Z,41
2022-07-28T00:12:58.595Z,58
2022-07-28T00:13:30.697Z,57
2022-07-28T00:14:03.824Z,57
2022-07-28T00:14:34.984Z,55
2022-07-28T00:15:09.042Z,54
2022-07-28T00:15:40.784Z,44
2022-07-28T00:16:11.103Z,44
2022-07-28T00:16:28.433Z,45
2022-07-28T00:16:59.242Z,44
2022-07-28T00:17:31.422Z,41
2022-07-28T00:17:48.931Z,55
2022-07-28T00:18:19.797Z,52
2022-07-28T00:18:40.659Z,51
2022-07-28T00:19:09.217Z,48
2022-07-28T00:19:40.521Z,42
2022-07-28T00:20:12.571Z,42
2022-07-28T00:20:38.741Z,42
2022-07-28T00:21:00.989Z,43
2022-07-28T00:21:31.311Z,42
2022-07-28T00:22:03.026Z,44
2022-07-28T00:22:35.452Z,43
2022-07-28T00:23:09.115Z,43
2022-07-28T00:23:39.799Z,46
2022-07-28T00:24:13.343Z,50
2022-07-28T00:24:39.239Z,50
2022-07-28T00:24:59.021Z,54
2022-07-28T00:25:33.186Z,47
2022-07-28T00:26:03.837Z,46
2022-07-28T00:26:35.810Z,46
2022-07-28T00:27:08.012Z,46
2022-07-28T00:27:39.183Z,47
2022-07-28T00:28:11.670Z,47
2022-07-28T00:28:36.848Z,47
2022-07-28T00:28:59.521Z,50
2022-07-28T00:29:49.211Z,37
2022-07-28T00:30:04.586Z,38
2022-07-28T00:30:35.358Z,38
2022-07-28T00:31:10.906Z,47
2022-07-28T00:31:39.579Z,32
2022-07-28T00:32:10.567Z,48
2022-07-28T00:32:37.401Z,48
2022-07-28T00:32:58.590Z,52
2022-07-28T00:33:30.591Z,52
2022-07-28T00:34:02.625Z,57
2022-07-28T00:34:34.610Z,57
2022-07-28T00:35:08.339Z,57
2022-07-28T00:35:38.666Z,52
2022-07-28T00:36:11.782Z,52
2022-07-28T00:36:37.314Z,52
2022-07-28T00:36:59.063Z,54
2022-07-28T00:37:32.531Z,52
2022-07-28T00:38:02.573Z,54
2022-07-28T00:38:35.603Z,57
2022-07-28T00:39:06.669Z,41
2022-07-28T00:39:38.663Z,41
2022-07-28T00:40:10.842Z,41
2022-07-28T00:40:37.624Z,41
2022-07-28T00:40:59.048Z,45
2022-07-28T00:41:30.612Z,46
2022-07-28T00:42:02.548Z,46
2022-07-28T00:42:34.738Z,46
2022-07-28T00:43:06.582Z,47
2022-07-28T00:43:38.602Z,47
2022-07-28T00:44:11.048Z,59
2022-07-28T00:44:36.545Z,48
2022-07-28T00:44:58.683Z,64
2022-07-28T00:45:33.142Z,52
2022-07-28T00:46:03.555Z,47
2022-07-28T00:46:35.482Z,67
2022-07-28T00:47:07.287Z,58
2022-07-28T00:47:39.446Z,58
2022-07-28T00:48:13.222Z,54
2022-07-28T00:48:38.955Z,62
2022-07-28T00:48:59.238Z,48
2022-07-28T00:49:34.276Z,48
2022-07-28T00:50:04.216Z,50
2022-07-28T00:50:35.151Z,70
2022-07-28T00:51:07.518Z,54
2022-07-28T00:51:39.348Z,56
2022-07-28T00:52:11.624Z,41
2022-07-28T00:52:38.542Z,50
2022-07-28T00:52:58.960Z,41
2022-07-28T00:53:32.579Z,46
2022-07-28T00:54:04.099Z,46
2022-07-28T00:54:34.781Z,48
2022-07-28T00:55:07.741Z,44
2022-07-28T00:56:05.536Z,38
2022-07-28T00:56:10.500Z,46
2022-07-28T00:56:36.517Z,50
2022-07-28T00:56:58.527Z,53
2022-07-28T00:57:30.551Z,54
2022-07-28T00:58:02.599Z,45
2022-07-28T00:58:35.548Z,43
2022-07-28T00:59:06.694Z,52
2022-07-28T00:59:38.606Z,94
2022-07-28T01:00:11.512Z,50
2022-07-28T01:00:36.575Z,46
2022-07-28T01:01:01.159Z,46
2022-07-28T01:01:31.169Z,46
2022-07-28T01:02:04.658Z,47
2022-07-28T01:02:35.208Z,54
2022-07-28T01:03:08.124Z,53
2022-07-28T01:03:38.815Z,53
2022-07-28T01:04:11.938Z,52
2022-07-28T01:04:37.426Z,56
2022-07-28T01:04:58.582Z,86
2022-07-28T01:05:43.635Z,71
2022-07-28T01:06:02.524Z,60
2022-07-28T01:06:34.648Z,60
2022-07-28T01:07:06.549Z,60
2022-07-28T01:07:38.575Z,59
2022-07-28T01:08:18.564Z,59
2022-07-28T01:08:36.560Z,59
2022-07-28T01:08:58.603Z,59
2022-07-28T01:09:30.454Z,31
2022-07-28T01:10:03.459Z,31
2022-07-28T01:10:34.418Z,62
2022-07-28T01:11:06.499Z,49
2022-07-28T01:11:42.622Z,45
2022-07-28T01:12:10.678Z,32
2022-07-28T01:12:37.799Z,55
2022-07-28T01:12:58.496Z,29
2022-07-28T01:13:33.156Z,55
2022-07-28T01:14:02.669Z,40
2022-07-28T01:14:34.558Z,40
2022-07-28T01:15:09.319Z,74
2022-07-28T01:15:38.620Z,51
2022-07-28T01:16:10.566Z,90
2022-07-28T01:16:36.591Z,51
2022-07-28T01:16:58.463Z,51
2022-07-28T01:17:30.579Z,90
2022-07-28T01:18:02.464Z,51
2022-07-28T01:18:35.347Z,52
2022-07-28T01:19:06.539Z,52
2022-07-28T01:19:38.617Z,51
2022-07-28T01:20:10.952Z,52
2022-07-28T01:20:36.599Z,52
2022-07-28T01:20:58.991Z,52
2022-07-28T01:21:30.569Z,51
2022-07-28T01:22:02.614Z,51
2022-07-28T01:22:34.509Z,51
2022-07-28T01:23:06.487Z,52
2022-07-28T01:23:38.591Z,52
2022-07-28T01:24:10.819Z,52
2022-07-28T01:24:36.571Z,52
2022-07-28T01:24:58.644Z,59
2022-07-28T01:25:31.069Z,59
2022-07-28T01:26:02.498Z,59
2022-07-28T01:26:34.517Z,60
2022-07-28T01:27:06.595Z,59
2022-07-28T01:27:38.531Z,60
2022-07-28T01:28:10.741Z,60
2022-07-28T01:28:36.793Z,60
2022-07-28T01:28:59.680Z,60
2022-07-28T01:29:30.461Z,60
2022-07-28T01:30:04.221Z,60
2022-07-28T01:30:35.221Z,60
2022-07-28T01:31:06.836Z,60
2022-07-28T01:31:38.710Z,60
2022-07-28T01:32:10.687Z,60
2022-07-28T01:32:36.561Z,60
2022-07-28T01:32:58.645Z,60
2022-07-28T01:33:30.524Z,60
2022-07-28T01:34:02.661Z,60
2022-07-28T01:34:34.527Z,60
2022-07-28T01:35:06.859Z,60
2022-07-28T01:35:38.693Z,60
2022-07-28T01:36:10.669Z,60
2022-07-28T01:36:36.578Z,60
2022-07-28T01:36:58.604Z,60
2022-07-28T01:37:30.506Z,60
2022-07-28T01:38:02.584Z,60
2022-07-28T01:38:34.459Z,60
2022-07-28T01:39:07.341Z,60
2022-07-28T01:39:38.731Z,60
2022-07-28T01:40:10.944Z,60
2022-07-28T01:40:36.560Z,60
2022-07-28T01:40:59.581Z,60
2022-07-28T01:41:31.317Z,60
2022-07-28T01:42:02.700Z,60
2022-07-28T01:42:34.741Z,60
2022-07-28T01:43:07.064Z,60
2022-07-28T01:43:40.654Z,60
2022-07-28T01:44:11.191Z,60
2022-07-28T01:44:36.684Z,60
2022-07-28T01:44:58.850Z,60
2022-07-28T01:45:31.517Z,60
2022-07-28T01:46:02.540Z,60
2022-07-28T01:46:35.135Z,60
2022-07-28T01:47:06.585Z,60
2022-07-28T01:47:38.632Z,60
2022-07-28T01:48:10.556Z,60
2022-07-28T01:48:36.646Z,60
2022-07-28T01:48:58.616Z,60
2022-07-28T01:49:31.368Z,60
2022-07-28T01:50:03.791Z,60
2022-07-28T01:50:35.472Z,60
2022-07-28T01:51:06.617Z,60
2022-07-28T01:51:39.132Z,60
2022-07-28T01:52:11.039Z,60
2022-07-28T01:52:36.656Z,60
2022-07-28T01:52:59.639Z,60
2022-07-28T01:53:31.589Z,60
2022-07-28T01:54:02.567Z,60
2022-07-28T01:54:34.927Z,60
2022-07-28T01:55:08.243Z,60
2022-07-28T01:55:39.980Z,60
2022-07-28T01:56:11.525Z,60
2022-07-28T01:56:37.723Z,60
2022-07-28T01:57:01.076Z,60
2022-07-28T01:57:31.062Z,60
2022-07-28T01:58:03.425Z,60
2022-07-28T01:58:35.794Z,60
2022-07-28T01:59:07.008Z,60
2022-07-28T01:59:39.635Z,60
2022-07-28T02:00:13.703Z,60
2022-07-28T02:00:39.838Z,60
2022-07-28T02:00:59.854Z,60
2022-07-28T02:01:31.887Z,60
2022-07-28T02:02:03.041Z,60
2022-07-28T02:02:36.078Z,60
2022-07-28T02:03:07.200Z,60
2022-07-28T02:03:39.115Z,60
2022-07-28T02:04:12.180Z,60
2022-07-28T02:04:38.168Z,60
2022-07-28T02:05:02.769Z,60
2022-07-28T02:05:32.428Z,60
2022-07-28T02:06:03.507Z,60
2022-07-28T02:06:36.158Z,60
2022-07-28T02:07:07.025Z,60
2022-07-28T02:07:38.598Z,60
2022-07-28T02:08:10.593Z,60
2022-07-28T02:08:38.380Z,60
2022-07-28T02:08:58.499Z,60
2022-07-28T02:09:30.698Z,60
2022-07-28T02:10:03.464Z,60
2022-07-28T02:10:38.189Z,60
2022-07-28T02:11:06.480Z,60
2022-07-28T02:11:38.476Z,60
2022-07-28T02:12:10.582Z,60
2022-07-28T02:12:36.783Z,60
2022-07-28T02:12:58.588Z,60
2022-07-28T02:13:30.543Z,60
2022-07-28T02:14:02.716Z,60
2022-07-28T02:14:34.496Z,60
2022-07-28T02:15:08.393Z,59
2022-07-28T02:15:38.573Z,59
2022-07-28T02:16:12.623Z,59
2022-07-28T02:16:37.175Z,59
2022-07-28T02:16:58.649Z,59
2022-07-28T02:17:30.536Z,59
2022-07-28T02:18:02.455Z,59
2022-07-28T02:18:36.151Z,59
2022-07-28T02:19:07.567Z,59
2022-07-28T02:19:39.479Z,59
2022-07-28T02:20:10.911Z,59
2022-07-28T02:20:36.723Z,59
2022-07-28T02:21:01.230Z,59
2022-07-28T02:21:31.577Z,59
2022-07-28T02:22:02.523Z,59
2022-07-28T02:22:34.589Z,59
2022-07-28T02:23:06.570Z,59
2022-07-28T02:23:38.681Z,59
2022-07-28T02:24:10.690Z,59
2022-07-28T02:24:36.656Z,59
2022-07-28T02:24:58.528Z,59
2022-07-28T02:25:31.026Z,59
2022-07-28T02:26:02.538Z,59
2022-07-28T02:26:35.613Z,59
2022-07-28T02:27:07.501Z,59
2022-07-28T02:27:38.590Z,59
2022-07-28T02:28:11.611Z,59
2022-07-28T02:28:37.689Z,59
2022-07-28T02:28:58.440Z,59
2022-07-28T02:29:50.367Z,59
2022-07-28T02:30:04.317Z,59
2022-07-28T02:30:35.608Z,59
2022-07-28T02:31:06.938Z,59
2022-07-28T02:31:40.513Z,59
2022-07-28T02:32:27.118Z,59
2022-07-28T02:32:37.590Z,59
2022-07-28T02:32:58.956Z,59
2022-07-28T02:33:58.731Z,59
2022-07-28T02:34:04.319Z,59
2022-07-28T02:34:37.427Z,59
2022-07-28T02:35:09.345Z,59
2022-07-28T02:35:39.136Z,59
2022-07-28T02:36:11.459Z,59
2022-07-28T02:36:39.018Z,59
2022-07-28T02:36:59.607Z,59
2022-07-28T02:37:30.852Z,59
2022-07-28T02:38:02.976Z,59
2022-07-28T02:38:34.466Z,59
2022-07-28T02:39:06.574Z,59
2022-07-28T02:39:38.628Z,59
2022-07-28T02:40:11.125Z,59
2022-07-28T02:40:37.408Z,59
2022-07-28T02:40:59.678Z,59
2022-07-28T02:41:30.526Z,59
2022-07-28T02:42:03.422Z,59
2022-07-28T02:42:35.371Z,59
2022-07-28T02:43:06.733Z,59
2022-07-28T02:43:49.352Z,59
2022-07-28T02:44:11.026Z,59
2022-07-28T02:44:36.743Z,59
2022-07-28T02:44:59.384Z,59
2022-07-28T02:45:31.438Z,59
2022-07-28T02:46:02.802Z,59
2022-07-28T02:46:34.467Z,59
2022-07-28T02:47:06.515Z,59
2022-07-28T02:47:39.446Z,59
2022-07-28T02:48:10.554Z,59
2022-07-28T02:48:37.801Z,59
2022-07-28T02:48:58.619Z,59
2022-07-28T02:49:30.687Z,59
2022-07-28T02:50:03.705Z,59
2022-07-28T02:50:35.444Z,59
2022-07-28T02:51:07.512Z,59
2022-07-28T02:51:38.548Z,59
2022-07-28T02:52:11.146Z,59
2022-07-28T02:52:36.575Z,59
2022-07-28T02:52:59.424Z,59
2022-07-28T02:53:30.522Z,59
2022-07-28T02:54:03.206Z,59
2022-07-28T02:54:36.556Z,59
2022-07-28T02:55:07.034Z,59
2022-07-28T02:55:38.494Z,59
2022-07-28T02:56:12.594Z,59
2022-07-28T02:56:36.713Z,59
2022-07-28T02:56:59.148Z,59
2022-07-28T02:57:30.560Z,60
2022-07-28T02:58:02.864Z,219
2022-07-28T02:58:34.433Z,219
2022-07-28T02:59:06.553Z,219
2022-07-28T02:59:38.590Z,219
2022-07-28T03:00:11.473Z,219
2022-07-28T03:00:36.560Z,219
2022-07-28T03:00:59.270Z,219
2022-07-28T03:01:31.453Z,219
2022-07-28T03:02:02.590Z,219
2022-07-28T03:02:41.071Z,219
2022-07-28T03:03:06.591Z,219
2022-07-28T03:03:43.735Z,219
2022-07-28T03:04:10.747Z,219
2022-07-28T03:04:36.685Z,219
2022-07-28T03:04:58.793Z,219
2022-07-28T03:05:30.832Z,219
2022-07-28T03:06:02.624Z,219
2022-07-28T03:06:34.615Z,219
2022-07-28T03:07:06.763Z,219
2022-07-28T03:07:42.456Z,219
2022-07-28T03:08:10.515Z,219
2022-07-28T03:08:36.764Z,219
2022-07-28T03:08:58.494Z,219
2022-07-28T03:09:30.553Z,219
2022-07-28T03:10:04.232Z,219
2022-07-28T03:10:34.955Z,219
2022-07-28T03:11:06.505Z,219
2022-07-28T03:11:38.631Z,219
2022-07-28T03:12:10.486Z,219
2022-07-28T03:12:36.662Z,219
2022-07-28T03:13:01.358Z,219
2022-07-28T03:13:30.499Z,219
2022-07-28T03:14:02.484Z,219
2022-07-28T03:14:34.489Z,219
2022-07-28T03:15:07.586Z,219
2022-07-28T03:15:38.588Z,219
2022-07-28T03:16:10.484Z,219
2022-07-28T03:16:36.666Z,219
2022-07-28T03:16:58.535Z,219
2022-07-28T03:17:30.591Z,219
2022-07-28T03:18:02.747Z,219
2022-07-28T03:18:34.657Z,219
2022-07-28T03:19:06.706Z,219
2022-07-28T03:19:39.460Z,176
2022-07-28T03:20:11.179Z,176
2022-07-28T03:20:36.553Z,220
2022-07-28T03:21:00.810Z,220
2022-07-28T03:21:30.440Z,220
2022-07-28T03:22:02.554Z,220
2022-07-28T03:22:35.528Z,220
2022-07-28T03:23:06.522Z,220
2022-07-28T03:23:38.490Z,220
2022-07-28T03:24:10.860Z,220
2022-07-28T03:24:36.964Z,220
2022-07-28T03:24:58.680Z,220
2022-07-28T03:25:32.610Z,220
2022-07-28T03:26:02.845Z,220
2022-07-28T03:26:34.583Z,220
2022-07-28T03:27:06.661Z,220
2022-07-28T03:27:38.699Z,220
2022-07-28T03:28:11.604Z,220
2022-07-28T03:28:36.715Z,220
2022-07-28T03:28:58.776Z,220
2022-07-28T03:29:30.722Z,220
2022-07-28T03:30:04.669Z,220
2022-07-28T03:30:34.940Z,219
2022-07-28T03:31:06.713Z,72
2022-07-28T03:31:38.632Z,72
2022-07-28T03:32:11.544Z,69
2022-07-28T03:32:36.897Z,69
2022-07-28T03:32:58.750Z,66
2022-07-28T03:33:30.604Z,47
2022-07-28T03:34:02.730Z,47
2022-07-28T03:34:34.635Z,47
2022-07-28T03:35:07.016Z,47
2022-07-28T03:35:38.792Z,47
2022-07-28T03:36:10.686Z,47
2022-07-28T03:36:37.011Z,47
2022-07-28T03:36:58.669Z,47
2022-07-28T03:37:31.220Z,47
2022-07-28T03:38:02.662Z,47
2022-07-28T03:38:35.716Z,47
2022-07-28T03:39:06.744Z,47
2022-07-28T03:39:38.772Z,47
2022-07-28T03:40:10.973Z,47
2022-07-28T03:40:36.836Z,47
2022-07-28T03:40:59.096Z,47
2022-07-28T03:41:30.662Z,47
2022-07-28T03:42:02.719Z,47
2022-07-28T03:42:34.853Z,47
2022-07-28T03:43:06.838Z,47
2022-07-28T03:43:38.675Z,47
2022-07-28T03:44:11.900Z,47
2022-07-28T03:44:36.930Z,48
2022-07-28T03:45:01.980Z,47
2022-07-28T03:45:30.658Z,48
2022-07-28T03:46:02.877Z,48
2022-07-28T03:46:34.630Z,48
2022-07-28T03:47:07.657Z,48
2022-07-28T03:47:38.582Z,48
2022-07-28T03:48:10.656Z,48
2022-07-28T03:48:37.369Z,48
2022-07-28T03:48:59.464Z,48
2022-07-28T03:49:30.757Z,48
2022-07-28T03:50:03.909Z,48
2022-07-28T03:50:34.587Z,47
2022-07-28T03:51:06.813Z,48
2022-07-28T03:51:38.677Z,48
2022-07-28T03:52:12.846Z,47
2022-07-28T03:52:36.982Z,47
2022-07-28T03:52:58.842Z,47
2022-07-28T03:53:31.465Z,47
2022-07-28T03:54:04.386Z,47
2022-07-28T03:54:35.947Z,47
2022-07-28T03:55:09.228Z,47
2022-07-28T03:55:38.843Z,341
2022-07-28T03:56:10.657Z,341
2022-07-28T03:56:36.784Z,341
2022-07-28T03:56:58.575Z,341
2022-07-28T03:57:32.507Z,341
2022-07-28T03:58:02.656Z,341
2022-07-28T03:58:34.923Z,341
2022-07-28T03:59:06.727Z,341
2022-07-28T03:59:38.756Z,340
2022-07-28T04:00:11.601Z,340
2022-07-28T04:00:36.885Z,340
2022-07-28T04:01:00.379Z,340
2022-07-28T04:01:30.703Z,340
2022-07-28T04:02:04.033Z,340
2022-07-28T04:02:34.587Z,340
2022-07-28T04:03:35.942Z,340
2022-07-28T04:03:54.820Z,340
2022-07-28T04:04:26.657Z,340
2022-07-28T04:05:01.571Z,340
2022-07-28T04:05:30.624Z,340
2022-07-28T04:06:02.668Z,340
2022-07-28T04:06:34.747Z,340
2022-07-28T04:07:06.868Z,340
2022-07-28T04:07:38.834Z,340
2022-07-28T04:08:11.706Z,340
2022-07-28T04:08:36.792Z,340
2022-07-28T04:08:58.632Z,340
2022-07-28T04:09:30.645Z,340
2022-07-28T04:10:03.471Z,341
2022-07-28T04:10:34.618Z,36
2022-07-28T04:11:06.726Z,32
2022-07-28T04:11:38.742Z,41
2022-07-28T04:12:10.634Z,38
2022-07-28T04:12:36.985Z,30
2022-07-28T04:12:58.665Z,38
2022-07-28T04:13:30.614Z,32
2022-07-28T04:14:02.892Z,35
2022-07-28T04:14:34.625Z,42
2022-07-28T04:15:08.258Z,67
2022-07-28T04:15:39.200Z,38
2022-07-28T04:16:11.182Z,32
2022-07-28T04:16:38.241Z,32
2022-07-28T04:16:59.014Z,32
2022-07-28T04:17:30.874Z,39
2022-07-28T04:18:03.498Z,38
2022-07-28T04:18:39.487Z,39
2022-07-28T04:19:08.770Z,39
2022-07-28T04:19:38.998Z,42
2022-07-28T04:20:11.280Z,23
2022-07-28T04:20:37.636Z,38
2022-07-28T04:20:59.719Z,36
2022-07-28T04:21:31.030Z,35
2022-07-28T04:22:03.096Z,45
2022-07-28T04:22:35.272Z,8
2022-07-28T04:23:08.202Z,50
2022-07-28T04:23:39.371Z,38
2022-07-28T04:24:11.227Z,57
2022-07-28T04:24:37.074Z,37
2022-07-28T04:24:58.896Z,57
2022-07-28T04:25:34.359Z,55
2022-07-28T04:26:03.531Z,110
2022-07-28T04:26:34.629Z,93
2022-07-28T04:27:08.687Z,218
2022-07-28T04:27:38.816Z,162
2022-07-28T04:28:11.145Z,30
2022-07-28T04:28:37.574Z,30
2022-07-28T04:29:03.376Z,32
2022-07-28T04:29:30.797Z,60
2022-07-28T04:30:05.380Z,88
2022-07-28T04:30:34.992Z,65
2022-07-28T04:31:06.790Z,17
2022-07-28T04:31:38.662Z,64
2022-07-28T04:32:10.602Z,46
2022-07-28T04:32:37.686Z,46
2022-07-28T04:32:58.727Z,35
2022-07-28T04:33:30.624Z,70
2022-07-28T04:34:02.849Z,51
2022-07-28T04:34:34.670Z,25
2022-07-28T04:35:06.983Z,46
2022-07-28T04:35:38.713Z,40
2022-07-28T04:36:12.118Z,40
2022-07-28T04:36:36.940Z,40
2022-07-28T04:36:58.760Z,86
2022-07-28T04:37:32.592Z,47
2022-07-28T04:38:03.980Z,54
2022-07-28T04:38:34.574Z,57
2022-07-28T04:39:06.776Z,46
2022-07-28T04:39:38.804Z,45
2022-07-28T04:40:10.943Z,65
2022-07-28T04:40:37.098Z,60
2022-07-28T04:40:59.014Z,46
2022-07-28T04:41:30.612Z,38
2022-07-28T04:42:02.695Z,53
2022-07-28T04:42:34.731Z,72
2022-07-28T04:43:08.583Z,91
2022-07-28T04:43:38.768Z,32
2022-07-28T04:44:10.848Z,50
2022-07-28T04:44:36.996Z,68
2022-07-28T04:44:59.072Z,35
2022-07-28T04:45:32.482Z,68
2022-07-28T04:46:02.885Z,57
2022-07-28T04:46:36.048Z,75
2022-07-28T04:47:06.663Z,58
2022-07-28T04:47:38.676Z,54
2022-07-28T04:48:10.605Z,44
2022-07-28T04:48:37.334Z,71
2022-07-28T04:48:59.774Z,29
2022-07-28T04:49:31.179Z,55
2022-07-28T04:50:04.762Z,43
2022-07-28T04:50:35.243Z,76
2022-07-28T04:51:07.549Z,41
2022-07-28T04:51:39.068Z,30
2022-07-28T04:52:11.418Z,38
2022-07-28T04:52:36.855Z,47
2022-07-28T04:52:59.750Z,32
2022-07-28T04:53:30.949Z,55
2022-07-28T04:54:04.157Z,32
2022-07-28T04:54:38.210Z,47
2022-07-28T04:55:07.801Z,29
2022-07-28T04:55:38.761Z,44
2022-07-28T04:56:10.568Z,72
2022-07-28T04:56:36.872Z,41
2022-07-28T04:56:58.927Z,29
2022-07-28T04:57:30.826Z,44
2022-07-28T04:58:05.364Z,47
2022-07-28T04:58:36.013Z,33
2022-07-28T04:59:06.885Z,61
2022-07-28T04:59:39.261Z,47
2022-07-28T05:00:12.182Z,37
2022-07-28T05:00:38.037Z,45
2022-07-28T05:00:58.989Z,28
2022-07-28T05:01:30.636Z,69
2022-07-28T05:02:02.836Z,28
2022-07-28T05:02:34.799Z,37
2022-07-28T05:03:06.675Z,46
2022-07-28T05:03:38.775Z,70
2022-07-28T05:04:10.665Z,44
2022-07-28T05:04:37.274Z,40
2022-07-28T05:04:59.540Z,31
2022-07-28T05:05:31.523Z,46
2022-07-28T05:06:03.323Z,25
2022-07-28T05:06:36.512Z,83
2022-07-28T05:07:12.642Z,57
2022-07-28T05:07:39.024Z,42
2022-07-28T05:08:10.970Z,56
2022-07-28T05:08:38.395Z,52
2022-07-28T05:08:58.740Z,42
2022-07-28T05:09:30.596Z,52
2022-07-28T05:10:03.753Z,35
2022-07-28T05:10:34.595Z,37
2022-07-28T05:11:06.619Z,35
2022-07-28T05:11:38.714Z,37
2022-07-28T05:12:10.640Z,50
2022-07-28T05:12:37.213Z,40
2022-07-28T05:12:58.640Z,37
2022-07-28T05:13:34.068Z,44
2022-07-28T05:14:02.775Z,55
2022-07-28T05:14:34.608Z,33
2022-07-28T05:15:08.157Z,64
2022-07-28T05:15:38.753Z,36
2022-07-28T05:16:10.579Z,38
2022-07-28T05:16:37.184Z,36
2022-07-28T05:16:58.662Z,23
2022-07-28T05:17:30.669Z,29
2022-07-28T05:18:02.642Z,61
2022-07-28T05:18:34.723Z,52
2022-07-28T05:19:06.752Z,61
2022-07-28T05:19:38.688Z,48
2022-07-28T05:20:10.927Z,76
2022-07-28T05:20:37.039Z,79
2022-07-28T05:20:58.956Z,33
2022-07-28T05:21:30.543Z,12
2022-07-28T05:22:02.630Z,70
2022-07-28T05:22:35.589Z,44
2022-07-28T05:23:06.656Z,31
2022-07-28T05:23:38.762Z,20
2022-07-28T05:24:10.735Z,8
2022-07-28T05:24:38.067Z,20
2022-07-28T05:24:58.766Z,73
2022-07-28T05:25:31.307Z,46
2022-07-28T05:26:02.841Z,55
2022-07-28T05:26:36.329Z,39
2022-07-28T05:27:06.868Z,52
2022-07-28T05:27:38.969Z,28
2022-07-28T05:28:11.528Z,30
2022-07-28T05:28:36.802Z,50
2022-07-28T05:28:58.577Z,33
2022-07-28T05:29:40.481Z,54
2022-07-28T05:30:05.205Z,49
2022-07-28T05:30:35.520Z,29
2022-07-28T05:31:08.047Z,24
2022-07-28T05:31:39.836Z,12
2022-07-28T05:32:17.109Z,26
2022-07-28T05:32:36.863Z,16
2022-07-28T05:32:58.607Z,22
2022-07-28T05:33:31.904Z,63
2022-07-28T05:34:02.740Z,54
2022-07-28T05:34:35.258Z,38
2022-07-28T05:35:06.983Z,38
2022-07-28T05:35:39.059Z,41
2022-07-28T05:36:10.609Z,37
2022-07-28T05:36:37.780Z,41
2022-07-28T05:36:59.700Z,34
2022-07-28T05:37:30.705Z,52
2022-07-28T05:38:06.258Z,46
2022-07-28T05:38:36.144Z,46
2022-07-28T05:39:06.610Z,54
2022-07-28T05:39:38.811Z,35
2022-07-28T05:40:11.728Z,345
2022-07-28T05:40:37.714Z,345
2022-07-28T05:40:59.742Z,345
2022-07-28T05:41:31.029Z,345
2022-07-28T05:42:02.823Z,35
2022-07-28T05:42:35.099Z,34
2022-07-28T05:43:07.039Z,9
2022-07-28T05:43:39.650Z,94
2022-07-28T05:44:12.753Z,67
2022-07-28T05:44:38.482Z,78
2022-07-28T05:45:02.022Z,50
2022-07-28T05:45:31.778Z,93
2022-07-28T05:46:03.829Z,63
2022-07-28T05:46:34.950Z,29
2022-07-28T05:47:07.842Z,24
2022-07-28T05:47:38.964Z,79
2022-07-28T05:48:10.723Z,58
2022-07-28T05:48:37.039Z,78
2022-07-28T05:48:59.123Z,85
2022-07-28T05:49:30.858Z,59
2022-07-28T05:50:04.035Z,41
2022-07-28T05:50:34.777Z,46
2022-07-28T05:51:06.953Z,60
2022-07-28T05:51:41.853Z,59
2022-07-28T05:52:10.702Z,38
2022-07-28T05:52:36.974Z,85
2022-07-28T05:52:58.796Z,69
2022-07-28T05:53:30.834Z,48
2022-07-28T05:54:02.873Z,37
2022-07-28T05:54:34.932Z,52
2022-07-28T05:55:07.196Z,26
2022-07-28T05:56:00.335Z,53
2022-07-28T05:56:10.703Z,78
2022-07-28T05:56:37.931Z,85
2022-07-28T05:56:58.848Z,46
2022-07-28T05:57:31.812Z,64
2022-07-28T05:58:03.114Z,44
2022-07-28T05:58:35.046Z,46
2022-07-28T05:59:07.661Z,75
2022-07-28T05:59:38.922Z,59
2022-07-28T06:00:11.934Z,81
2022-07-28T06:00:38.246Z,61
2022-07-28T06:00:59.336Z,57
2022-07-28T06:01:31.657Z,99
2022-07-28T06:02:03.342Z,51
2022-07-28T06:02:34.789Z,57
2022-07-28T06:03:07.847Z,42
2022-07-28T06:03:42.347Z,54
2022-07-28T06:04:26.045Z,65
2022-07-28T06:04:37.531Z,56
2022-07-28T06:04:58.964Z,67
2022-07-28T06:05:31.093Z,29
2022-07-28T06:06:15.944Z,57
2022-07-28T06:06:34.955Z,40
2022-07-28T06:07:06.920Z,53
2022-07-28T06:07:43.676Z,56
2022-07-28T06:08:11.865Z,52
2022-07-28T06:08:38.253Z,46
2022-07-28T06:08:58.954Z,57
2022-07-28T06:09:30.899Z,53
2022-07-28T06:10:04.979Z,96
2022-07-28T06:10:34.915Z,66
2022-07-28T06:11:06.846Z,28
2022-07-28T06:11:38.850Z,28
2022-07-28T06:12:11.438Z,78
2022-07-28T06:12:37.980Z,48
2022-07-28T06:12:59.579Z,134
2022-07-28T06:13:30.909Z,71
2022-07-28T06:14:03.227Z,72
2022-07-28T06:14:36.365Z,80
2022-07-28T06:15:08.038Z,90
2022-07-28T06:15:38.874Z,46
2022-07-28T06:16:13.392Z,40
2022-07-28T06:16:37.047Z,47
2022-07-28T06:16:59.201Z,32
2022-07-28T06:17:30.890Z,47
2022-07-28T06:18:03.915Z,84
2022-07-28T06:18:35.539Z,140
2022-07-28T06:19:07.917Z,121
2022-07-28T06:19:38.970Z,59
2022-07-28T06:20:11.573Z,55
2022-07-28T06:20:37.801Z,80
2022-07-28T06:20:59.258Z,47
2022-07-28T06:21:30.939Z,52
2022-07-28T06:22:02.892Z,48
2022-07-28T06:22:36.674Z,48
2022-07-28T06:23:07.050Z,56
2022-07-28T06:23:38.919Z,24
2022-07-28T06:24:11.073Z,24
2022-07-28T06:24:37.154Z,38
2022-07-28T06:24:59.763Z,33
2022-07-28T06:25:31.411Z,25
2022-07-28T06:26:03.387Z,43
2022-07-28T06:26:35.339Z,47
2022-07-28T06:27:07.883Z,33
2022-07-28T06:27:40.518Z,58
2022-07-28T06:28:12.598Z,28
2022-07-28T06:28:38.182Z,353
2022-07-28T06:28:59.242Z,25
2022-07-28T06:29:31.269Z,28
2022-07-28T06:30:05.270Z,46
2022-07-28T06:30:37.725Z,41
2022-07-28T06:31:06.953Z,40
2022-07-28T06:31:39.297Z,83
2022-07-28T06:32:10.962Z,67
2022-07-28T06:32:37.315Z,56
2022-07-28T06:33:00.882Z,31
2022-07-28T06:33:32.995Z,29
2022-07-28T06:34:02.857Z,359
2022-07-28T06:34:36.052Z,75
2022-07-28T06:35:08.401Z,84
2022-07-28T06:35:46.664Z,63
2022-07-28T06:36:11.046Z,35
2022-07-28T06:36:38.185Z,34
2022-07-28T06:36:58.977Z,16
2022-07-28T06:37:31.805Z,85
2022-07-28T06:38:03.080Z,79
2022-07-28T06:38:36.618Z,96
2022-07-28T06:39:06.971Z,57
2022-07-28T06:39:39.119Z,41
2022-07-28T06:40:11.116Z,38
2022-07-28T06:40:37.101Z,39
2022-07-28T06:40:59.482Z,31
2022-07-28T06:41:31.840Z,43
2022-07-28T06:42:02.854Z,52
2022-07-28T06:42:35.095Z,48
2022-07-28T06:43:07.009Z,65
2022-07-28T06:43:39.395Z,39
2022-07-28T06:44:12.417Z,66
2022-07-28T06:44:54.896Z,52
2022-07-28T06:45:20.733Z,22
2022-07-28T06:45:36.988Z,37
2022-07-28T06:46:02.919Z,48
2022-07-28T06:46:35.589Z,31
2022-07-28T06:47:06.967Z,47
2022-07-28T06:47:39.056Z,57
2022-07-28T06:48:11.014Z,50
2022-07-28T06:48:37.681Z,57
2022-07-28T06:48:59.077Z,74
2022-07-28T06:49:32.648Z,66
2022-07-28T06:50:04.288Z,46
2022-07-28T06:50:34.816Z,58
2022-07-28T06:51:06.938Z,34
2022-07-28T06:51:39.025Z,46
2022-07-28T06:52:10.683Z,52
2022-07-28T06:52:37.062Z,20
2022-07-28T06:52:59.828Z,81
2022-07-28T06:53:33.729Z,33
2022-07-28T06:54:06.806Z,38
2022-07-28T06:54:35.103Z,47
2022-07-28T06:55:07.165Z,48
2022-07-28T06:55:39.106Z,68
2022-07-28T06:56:13.887Z,41
2022-07-28T06:56:37.207Z,21
2022-07-28T06:56:58.811Z,30
2022-07-28T06:57:33.672Z,30
2022-07-28T06:58:02.880Z,28
2022-07-28T06:58:34.805Z,32
2022-07-28T06:59:07.275Z,39
2022-07-28T06:59:39.711Z,66
2022-07-28T07:00:11.807Z,61
2022-07-28T07:00:37.194Z,64
2022-07-28T07:01:00.320Z,31
2022-07-28T07:01:31.017Z,33
2022-07-28T07:02:03.218Z,17
2022-07-28T07:02:34.818Z,53
2022-07-28T07:03:09.883Z,39
2022-07-28T07:03:38.994Z,35
2022-07-28T07:04:12.061Z,32
2022-07-28T07:04:37.295Z,38
2022-07-28T07:05:02.894Z,29